Time;durP1;ratioP1;P1;durP2;ratioP2;P2;SDS_P1;SDS_P2;PMS_P1;PMS_P2;Temp;Humidity;BMP_temperature;BMP_pressure;BME280_temperature;BME280_humidity;BME280_pressure;Samples;Min_cycle;Max_cycle;Signal;HPM_P1;HPM_P2
2022/05/23 00:01:43;;;;;;;1.33;1.00;;;18.20;68.80;;;;;;4997416;28;20029;-80
2022/05/23 00:04:09;;;;;;;0.70;0.70;;;18.20;68.70;;;;;;4996977;28;20344;-81
2022/05/23 00:06:36;;;;;;;0.85;0.85;;;18.30;68.60;;;;;;4996746;28;20022;-80
2022/05/23 00:09:02;;;;;;;2.65;0.95;;;18.20;68.60;;;;;;4996753;28;20027;-80
2022/05/23 00:11:28;;;;;;;0.75;0.73;;;18.20;68.60;;;;;;4997247;28;20129;-79
2022/05/23 00:13:53;;;;;;;1.30;1.20;;;18.20;68.60;;;;;;4996666;28;20027;-80
2022/05/23 00:16:23;;;;;;;1.33;1.10;;;18.20;68.70;;;;;;4996657;28;20032;-81
2022/05/23 00:18:49;;;;;;;1.25;1.00;;;18.20;68.80;;;;;;4997163;28;20110;-81
2022/05/23 00:21:16;;;;;;;1.85;1.10;;;18.20;68.70;;;;;;4996854;28;20030;-83
2022/05/23 00:23:42;;;;;;;1.20;1.00;;;18.20;68.60;;;;;;4998026;28;20100;-78
2022/05/23 00:26:10;;;;;;;2.90;1.10;;;18.20;68.50;;;;;;4997224;28;20022;-80
2022/05/23 00:28:38;;;;;;;2.25;1.05;;;18.20;69.20;;;;;;4996063;28;20459;-80
2022/05/23 00:31:04;;;;;;;1.85;0.98;;;18.20;68.80;;;;;;4979399;28;20069;-81
2022/05/23 00:36:13;;;;;;;2.28;1.23;;;18.30;68.20;;;;;;4996509;28;20081;-80
2022/05/23 00:38:39;;;;;;;1.65;1.17;;;18.30;67.80;;;;;;4995509;28;20041;-84
2022/05/23 00:44:01;;;;;;;1.02;0.80;;;18.30;67.60;;;;;;5011507;28;20056;-83
2022/05/23 00:46:27;;;;;;;3.75;1.13;;;18.20;67.70;;;;;;5010671;28;20022;-79
2022/05/23 00:48:53;;;;;;;2.58;1.00;;;18.10;67.90;;;;;;4987420;28;20065;-80
2022/05/23 00:51:19;;;;;;;2.05;1.00;;;18.10;68.20;;;;;;4996236;28;20049;-79
2022/05/23 00:53:52;;;;;;;2.70;0.93;;;18.00;68.30;;;;;;4978870;28;20073;-79
2022/05/23 00:56:20;;;;;;;1.10;1.00;;;18.00;68.50;;;;;;4997217;28;20034;-80
2022/05/23 00:58:50;;;;;;;2.03;0.82;;;18.00;68.70;;;;;;4996414;28;20053;-80
2022/05/23 01:01:22;;;;;;;0.70;0.70;;;18.10;68.80;;;;;;4997871;28;20018;-81
2022/05/23 01:03:48;;;;;;;0.50;0.50;;;18.10;68.80;;;;;;4995884;28;20106;-82
2022/05/23 01:06:14;;;;;;;1.30;1.02;;;18.00;68.70;;;;;;4978247;28;20113;-80
2022/05/23 01:08:41;;;;;;;0.80;0.80;;;18.10;68.90;;;;;;4995778;28;20089;-80
2022/05/23 01:11:09;;;;;;;1.15;1.10;;;18.00;69.30;;;;;;5014898;22;20430;-83
2022/05/23 01:13:35;;;;;;;1.63;1.00;;;17.90;69.70;;;;;;4994637;28;20038;-85
2022/05/23 01:16:00;;;;;;;1.35;1.00;;;17.80;70.10;;;;;;5008494;28;20026;-83
2022/05/23 01:18:26;;;;;;;1.02;0.93;;;17.80;70.50;;;;;;5009871;28;20125;-83
2022/05/23 01:21:00;;;;;;;2.05;1.45;;;17.80;70.70;;;;;;5028242;28;20026;-85
2022/05/23 01:23:31;;;;;;;1.83;0.90;;;17.80;70.80;;;;;;5009300;28;20121;-86
2022/05/23 01:25:57;;;;;;;1.05;1.05;;;17.80;70.90;;;;;;5009335;28;20022;-83
2022/05/23 01:28:22;;;;;;;1.00;0.98;;;17.80;70.90;;;;;;5011189;28;20056;-85
2022/05/23 01:30:49;;;;;;;1.10;0.75;;;17.80;71.00;;;;;;5008602;28;20022;-82
2022/05/23 01:33:15;;;;;;;1.70;1.05;;;17.80;71.00;;;;;;5008719;28;20030;-83
2022/05/23 01:35:41;;;;;;;2.22;0.88;;;17.80;71.00;;;;;;5009740;28;20033;-83
2022/05/23 01:38:07;;;;;;;2.97;0.90;;;17.80;71.00;;;;;;5025916;28;20078;-86
2022/05/23 01:40:33;;;;;;;1.30;1.20;;;17.80;71.10;;;;;;5026243;28;20017;-83
2022/05/23 01:43:01;;;;;;;1.45;1.08;;;17.80;71.30;;;;;;5008763;28;20049;-84
2022/05/23 01:45:32;;;;;;;1.52;1.02;;;17.80;71.40;;;;;;5030118;28;20037;-82
2022/05/23 01:47:58;;;;;;;2.22;1.00;;;17.70;71.80;;;;;;5033349;28;20102;-85
2022/05/23 01:50:24;;;;;;;1.63;1.17;;;17.70;72.00;;;;;;5031024;28;20036;-83
2022/05/23 01:52:52;;;;;;;0.95;0.80;;;17.70;72.10;;;;;;5026098;28;20041;-82
2022/05/23 01:55:17;;;;;;;0.82;0.82;;;17.70;72.10;;;;;;5026258;28;20063;-84
2022/05/23 01:57:43;;;;;;;1.75;1.05;;;17.70;72.10;;;;;;5025612;28;20022;-85
2022/05/23 02:02:55;;;;;;;1.85;0.90;;;17.70;72.00;;;;;;5025229;28;20072;-84
2022/05/23 02:05:21;;;;;;;1.13;1.10;;;17.70;71.80;;;;;;5025063;28;20061;-82
2022/05/23 02:07:47;;;;;;;1.00;0.90;;;17.70;71.70;;;;;;5024968;28;20072;-82
2022/05/23 02:10:14;;;;;;;2.78;0.88;;;17.70;71.70;;;;;;5015065;28;20097;-89
2022/05/23 02:12:40;;;;;;;1.85;1.27;;;17.70;71.70;;;;;;5024723;28;20068;-88
2022/05/23 02:15:06;;;;;;;2.55;1.00;;;17.70;71.80;;;;;;5001495;28;20474;-81
2022/05/23 02:17:32;;;;;;;1.02;0.90;;;17.70;71.80;;;;;;5020833;28;20081;-83
2022/05/23 02:19:58;;;;;;;1.15;0.80;;;17.70;71.40;;;;;;5015601;28;20033;-85
2022/05/23 02:22:24;;;;;;;1.00;0.90;;;17.80;71.30;;;;;;5012145;28;20096;-85
2022/05/23 02:24:49;;;;;;;1.40;0.90;;;17.90;71.30;;;;;;5002627;28;20389;-85
2022/05/23 02:27:15;;;;;;;2.08;1.15;;;17.90;71.20;;;;;;5021362;28;20041;-82
2022/05/23 02:29:41;;;;;;;0.80;0.75;;;17.90;70.90;;;;;;5023330;28;20399;-83
2022/05/23 02:32:08;;;;;;;0.80;0.75;;;17.90;70.70;;;;;;5021469;28;20021;-83
2022/05/23 02:34:34;;;;;;;0.80;0.80;;;17.90;70.80;;;;;;5022015;28;20014;-83
2022/05/23 02:37:01;;;;;;;1.45;1.10;;;17.90;70.90;;;;;;5011468;28;20021;-86
2022/05/23 02:39:27;;;;;;;1.02;0.93;;;17.90;70.60;;;;;;5018118;28;20379;-83
2022/05/23 02:41:52;;;;;;;1.20;1.20;;;17.90;70.50;;;;;;5025291;28;20022;-84
2022/05/23 02:44:19;;;;;;;1.15;0.90;;;17.90;70.60;;;;;;5025369;28;20018;-87
2022/05/23 02:46:45;;;;;;;0.75;0.75;;;17.90;70.70;;;;;;5018753;28;20022;-84
2022/05/23 02:49:12;;;;;;;1.25;0.85;;;17.80;70.80;;;;;;5007169;28;20022;-82
2022/05/23 02:51:38;;;;;;;2.42;1.17;;;17.80;71.10;;;;;;5025069;28;20082;-83
2022/05/23 02:54:04;;;;;;;3.38;1.00;;;17.70;71.20;;;;;;5025975;28;20421;-84
2022/05/23 02:56:31;;;;;;;4.22;1.38;;;17.70;71.50;;;;;;5025484;28;20022;-83
2022/05/23 02:58:57;;;;;;;3.10;1.27;;;17.60;71.80;;;;;;5007604;28;20503;-83
2022/05/23 03:01:23;;;;;;;1.67;1.40;;;17.60;72.00;;;;;;5025787;28;20030;-85
2022/05/23 03:03:48;;;;;;;1.73;1.15;;;17.50;72.10;;;;;;5025097;28;20087;-83
2022/05/23 03:06:15;;;;;;;2.08;0.80;;;17.50;72.10;;;;;;5007808;28;20037;-82
2022/05/23 03:08:41;;;;;;;1.20;1.10;;;17.50;72.20;;;;;;5007844;28;20058;-86
2022/05/23 03:11:08;;;;;;;1.58;1.08;;;17.60;72.30;;;;;;5025560;28;20026;-83
2022/05/23 03:13:37;;;;;;;1.67;1.00;;;17.60;72.30;;;;;;5008375;28;20022;-82
2022/05/23 03:16:08;;;;;;;1.00;0.90;;;17.60;72.20;;;;;;5009161;28;20026;-84
2022/05/23 03:18:34;;;;;;;1.90;1.30;;;17.50;72.20;;;;;;5011610;28;20042;-84
2022/05/23 03:21:07;;;;;;;2.45;1.17;;;17.50;72.50;;;;;;5030114;28;20021;-83
2022/05/23 03:29:08;;;;;;;1.48;1.15;;;17.40;72.80;;;;;;5033900;28;20080;-84
2022/05/23 03:31:34;;;;;;;1.40;1.00;;;17.40;73.10;;;;;;5030155;28;20046;-84
2022/05/23 03:33:59;;;;;;;2.30;1.17;;;17.40;73.20;;;;;;5028640;28;20045;-85
2022/05/23 03:36:25;;;;;;;1.27;0.93;;;17.50;73.20;;;;;;5025515;28;20034;-85
2022/05/23 03:38:51;;;;;;;0.90;0.90;;;17.50;73.00;;;;;;5021825;28;20014;-82
2022/05/23 03:41:17;;;;;;;1.92;1.00;;;17.60;73.00;;;;;;5021472;28;20030;-83
2022/05/23 03:43:43;;;;;;;2.08;1.67;;;17.60;73.00;;;;;;5020573;28;20026;-83
2022/05/23 03:46:13;;;;;;;1.17;1.08;;;17.50;73.20;;;;;;5020897;28;20098;-82
2022/05/23 03:48:39;;;;;;;1.55;1.00;;;17.50;73.40;;;;;;5021669;28;20029;-79
2022/05/23 03:51:07;;;;;;;1.65;0.75;;;17.50;73.50;;;;;;5017833;28;20037;-80
2022/05/23 03:53:33;;;;;;;1.85;1.20;;;17.50;73.80;;;;;;5019123;28;20018;-79
2022/05/23 03:55:59;;;;;;;1.33;1.10;;;17.50;73.90;;;;;;5017843;28;20014;-79
2022/05/23 03:58:27;;;;;;;2.33;1.20;;;17.50;73.80;;;;;;5018572;28;20022;-80
2022/05/23 04:01:05;;;;;;;1.73;1.25;;;17.50;74.00;;;;;;5021053;28;20022;-79
2022/05/23 04:03:30;;;;;;;2.13;1.10;;;17.50;74.00;;;;;;5024495;28;20022;-79
2022/05/23 04:05:59;;;;;;;2.13;1.27;;;17.50;74.00;;;;;;5025301;28;20014;-81
2022/05/23 04:08:25;;;;;;;1.67;1.25;;;17.50;74.10;;;;;;5004576;28;20036;-80
2022/05/23 04:10:51;;;;;;;2.78;1.50;;;17.50;74.20;;;;;;5020452;28;20057;-81
2022/05/23 04:13:17;;;;;;;0.95;0.95;;;17.50;74.00;;;;;;5017681;28;20041;-83
2022/05/23 04:15:43;;;;;;;1.95;1.20;;;17.50;74.30;;;;;;5022058;28;20081;-80
2022/05/23 04:18:09;;;;;;;1.25;1.20;;;17.50;74.30;;;;;;5023835;28;20033;-83
2022/05/23 04:20:34;;;;;;;2.38;1.20;;;17.40;75.10;;;;;;5027321;28;20550;-82
2022/05/23 04:23:00;;;;;;;3.80;1.50;;;17.50;74.40;;;;;;5003365;28;20041;-81
2022/05/23 04:25:26;;;;;;;2.28;1.20;;;17.50;74.40;;;;;;5002729;28;20084;-81
2022/05/23 04:27:52;;;;;;;1.58;1.35;;;17.70;74.60;;;;;;5019595;28;20046;-81
2022/05/23 04:30:18;;;;;;;3.00;1.40;;;17.80;74.20;;;;;;5019801;28;20074;-82
2022/05/23 04:35:28;;;;;;;3.53;1.40;;;17.90;74.00;;;;;;5019163;28;20057;-82
2022/05/23 04:37:55;;;;;;;1.65;1.35;;;18.00;73.50;;;;;;5022716;28;20022;-84
2022/05/23 04:40:25;;;;;;;2.63;1.20;;;18.10;73.20;;;;;;5020449;28;20029;-83
2022/05/23 04:42:51;;;;;;;1.48;1.33;;;18.10;73.00;;;;;;5018464;28;20498;-84
2022/05/23 04:45:18;;;;;;;1.85;1.40;;;18.20;72.90;;;;;;5018362;28;20363;-83
2022/05/23 04:50:29;;;;;;;1.67;1.25;;;18.10;73.10;;;;;;5019772;28;20084;-84
2022/05/23 04:52:57;;;;;;;1.38;1.27;;;18.20;73.40;;;;;;5019077;28;20025;-84
2022/05/23 04:55:23;;;;;;;2.45;1.40;;;18.40;73.20;;;;;;5019997;28;20242;-84
2022/05/23 04:57:50;;;;;;;1.52;1.40;;;18.70;72.50;;;;;;5019175;28;20096;-85
2022/05/23 05:00:19;;;;;;;1.90;1.58;;;18.80;72.00;;;;;;5019429;28;20040;-83
2022/05/23 05:02:46;;;;;;;2.75;1.40;;;18.90;71.80;;;;;;5020751;28;20106;-84
2022/05/23 05:05:13;;;;;;;3.80;1.40;;;18.90;71.80;;;;;;5002740;28;20497;-85
2022/05/23 05:07:38;;;;;;;1.50;1.38;;;18.90;72.10;;;;;;5002019;28;20040;-84
2022/05/23 05:10:05;;;;;;;2.65;1.80;;;18.90;72.20;;;;;;5021807;28;20113;-86
2022/05/23 05:12:31;;;;;;;3.42;1.58;;;18.90;72.50;;;;;;5024158;28;20038;-84
2022/05/23 05:14:57;;;;;;;2.33;1.48;;;18.90;72.60;;;;;;5031999;28;20076;-83
2022/05/23 05:17:24;;;;;;;1.88;1.40;;;19.00;72.90;;;;;;5039361;28;20033;-84
2022/05/23 05:19:50;;;;;;;2.58;1.80;;;19.00;72.60;;;;;;5036901;28;20033;-83
2022/05/23 05:22:15;;;;;;;2.08;1.27;;;19.20;72.50;;;;;;5019177;28;20064;-82
2022/05/23 05:24:41;;;;;;;1.60;1.45;;;19.30;72.20;;;;;;5018793;28;20030;-84
2022/05/23 05:27:09;;;;;;;5.00;2.00;;;19.40;72.20;;;;;;5034975;28;20026;-84
2022/05/23 05:29:36;;;;;;;1.63;1.40;;;19.30;72.20;;;;;;5038783;28;20029;-83
2022/05/23 05:32:20;;;;;;;3.65;1.50;;;19.20;72.90;;;;;;5040411;28;20061;-84
2022/05/23 05:35:27;;;;;;;3.28;1.60;;;19.20;73.10;;;;;;5041747;28;20025;-85
2022/05/23 05:38:10;;;;;;;2.15;1.90;;;19.30;73.10;;;;;;5027334;28;20068;-83
2022/05/23 05:40:36;;;;;;;2.13;1.70;;;19.40;72.80;;;;;;5020415;28;20018;-83
2022/05/23 05:43:08;;;;;;;4.63;2.13;;;19.40;72.30;;;;;;5018969;28;20033;-84
2022/05/23 05:45:49;;;;;;;3.80;1.58;;;19.20;72.60;;;;;;5001711;28;20479;-83
2022/05/23 05:48:16;;;;;;;5.05;1.30;;;19.30;73.30;;;;;;5019765;28;20121;-85
2022/05/23 05:50:43;;;;;;;2.33;1.70;;;19.80;72.10;;;;;;5004408;28;20093;-84
2022/05/23 05:53:13;;;;;;;2.42;1.50;;;20.10;70.70;;;;;;5018322;28;20049;-81
2022/05/23 05:55:41;;;;;;;5.03;1.80;;;20.10;70.10;;;;;;5020335;28;20022;-83
2022/05/23 05:58:08;;;;;;;1.60;1.50;;;19.80;70.70;;;;;;5007279;28;20061;-82
2022/05/23 06:00:34;;;;;;;3.08;1.45;;;19.70;71.50;;;;;;5008866;28;20383;-82
2022/05/23 06:02:59;;;;;;;1.60;1.40;;;19.60;71.80;;;;;;5003015;28;20026;-84
2022/05/23 06:05:25;;;;;;;5.80;1.70;;;19.60;72.30;;;;;;5024879;28;20026;-84
2022/05/23 06:13:19;;;;;;;2.78;1.70;;;19.50;72.20;;;;;;5020951;28;20160;-83
2022/05/23 06:15:45;;;;;;;4.75;1.38;;;19.50;72.90;;;;;;5035109;28;20073;-83
2022/05/23 06:18:11;;;;;;;2.45;1.70;;;19.60;72.80;;;;;;5048688;28;20073;-85
2022/05/23 06:20:38;;;;;;;2.85;1.60;;;19.70;72.50;;;;;;5056094;28;20038;-84
2022/05/23 06:23:04;;;;;;;2.58;1.80;;;19.90;71.90;;;;;;5044332;28;20097;-82
2022/05/23 06:25:30;;;;;;;1.75;1.55;;;19.90;71.60;;;;;;5021774;28;20037;-83
2022/05/23 06:27:56;;;;;;;3.67;1.90;;;19.90;72.00;;;;;;5018312;28;20014;-83
2022/05/23 06:30:23;;;;;;;3.45;2.03;;;19.70;72.20;;;;;;5017576;28;20022;-83
2022/05/23 06:32:49;;;;;;;3.90;1.42;;;19.60;73.00;;;;;;5017087;28;20120;-83
2022/05/23 06:35:16;;;;;;;2.72;1.85;;;19.70;73.20;;;;;;5021236;28;20072;-84
2022/05/23 06:37:42;;;;;;;3.40;1.95;;;19.80;72.60;;;;;;5023388;28;20124;-82
2022/05/23 06:40:11;;;;;;;1.92;1.40;;;20.10;72.40;;;;;;5025257;28;20475;-83
2022/05/23 06:42:37;;;;;;;3.63;1.83;;;20.90;71.40;;;;;;5024592;28;20370;-84
2022/05/23 06:45:05;;;;;;;1.48;1.38;;;21.80;68.90;;;;;;5026316;28;20025;-82
2022/05/23 06:47:31;;;;;;;4.03;2.00;;;23.20;65.70;;;;;;5026003;28;20029;-81
2022/05/23 06:49:57;;;;;;;2.75;1.70;;;23.60;62.20;;;;;;5024822;28;20084;-81
2022/05/23 06:52:23;;;;;;;2.35;2.08;;;23.50;61.50;;;;;;5027012;28;20050;-84
2022/05/23 06:54:49;;;;;;;5.25;1.83;;;23.20;62.10;;;;;;5042716;28;20033;-82
2022/05/23 06:57:15;;;;;;;3.05;1.67;;;22.90;62.40;;;;;;5045209;28;20030;-81
2022/05/23 06:59:41;;;;;;;1.45;1.35;;;22.90;63.30;;;;;;5043097;28;20018;-81
2022/05/23 07:02:09;;;;;;;2.65;1.55;;;22.90;62.90;;;;;;5044422;28;20085;-82
2022/05/23 07:12:49;;;;;;;4.63;1.90;;;22.00;65.30;;;;;;5025181;28;20037;-81
2022/05/23 07:15:15;;;;;;;5.38;2.17;;;21.70;66.00;;;;;;5008429;28;20025;-83
2022/05/23 07:17:41;;;;;;;3.63;2.15;;;21.50;67.20;;;;;;5027025;28;20029;-83
2022/05/23 07:20:08;;;;;;;4.50;2.20;;;21.20;68.10;;;;;;5027378;28;20037;-82
2022/05/23 07:22:34;;;;;;;8.65;2.10;;;21.00;69.30;;;;;;5027507;28;20026;-81
2022/05/23 07:25:01;;;;;;;6.55;2.20;;;20.70;69.90;;;;;;5011971;28;20033;-82
2022/05/23 07:27:28;;;;;;;7.57;1.98;;;20.50;70.50;;;;;;5049004;23;20038;-80
2022/05/23 07:29:55;;;;;;;4.07;2.15;;;20.30;71.10;;;;;;5007220;28;20037;-79
2022/05/23 07:32:23;;;;;;;5.20;2.00;;;20.20;71.30;;;;;;5004730;28;20054;-82
2022/05/23 07:34:49;;;;;;;5.68;2.78;;;20.10;71.70;;;;;;4993451;28;20056;-79
2022/05/23 07:37:15;;;;;;;8.82;2.40;;;20.00;71.50;;;;;;5007622;28;20030;-80
2022/05/23 07:39:41;;;;;;;4.72;2.67;;;19.90;71.00;;;;;;5024138;28;20021;-77
2022/05/23 07:42:07;;;;;;;9.52;2.45;;;19.80;70.30;;;;;;5007324;28;20037;-78
2022/05/23 07:44:35;;;;;;;8.30;2.50;;;19.60;70.60;;;;;;5025552;28;20032;-79
2022/05/23 07:47:01;;;;;;;4.68;1.73;;;19.40;70.20;;;;;;5023400;28;20026;-80
2022/05/23 07:49:27;;;;;;;3.63;2.28;;;19.30;71.50;;;;;;5006794;28;20101;-79
2022/05/23 07:51:56;;;;;;;10.07;1.90;;;19.40;71.10;;;;;;5023715;28;20026;-77
2022/05/23 08:02:36;;;;;;;6.25;2.47;;;19.50;70.80;;;;;;5025406;28;20049;-79
2022/05/23 08:05:02;;;;;;;6.07;2.30;;;19.40;70.80;;;;;;5005570;28;20030;-77
2022/05/23 08:07:29;;;;;;;2.95;1.85;;;19.30;71.30;;;;;;5022282;28;20064;-76
2022/05/23 08:09:56;;;;;;;6.60;2.70;;;19.30;72.40;;;;;;5024858;28;20028;-78
2022/05/23 08:12:22;;;;;;;6.93;2.13;;;19.50;71.40;;;;;;5023600;28;20026;-76
2022/05/23 08:14:47;;;;;;;9.63;3.30;;;19.80;71.30;;;;;;5025079;28;20041;-78
2022/05/23 08:17:13;;;;;;;4.78;2.17;;;20.00;69.60;;;;;;5018624;28;20026;-79
2022/05/23 08:19:39;;;;;;;5.10;2.00;;;20.10;70.20;;;;;;5020348;28;20029;-77
2022/05/23 08:22:06;;;;;;;4.38;1.92;;;20.30;70.00;;;;;;5024787;28;20042;-79
2022/05/23 08:24:33;;;;;;;5.25;2.45;;;20.30;70.20;;;;;;5019831;28;20037;-79
2022/05/23 08:26:59;;;;;;;4.05;1.95;;;20.60;70.70;;;;;;5019836;28;20553;-81
2022/05/23 08:29:25;;;;;;;7.47;2.60;;;20.40;70.50;;;;;;5021259;28;20064;-77
2022/05/23 08:31:51;;;;;;;4.45;3.15;;;20.20;71.30;;;;;;5020815;28;20022;-77
2022/05/23 08:34:17;;;;;;;8.30;2.70;;;19.90;72.70;;;;;;5019812;28;20506;-79
2022/05/23 08:36:43;;;;;;;4.47;2.78;;;19.70;75.10;;;;;;5004528;28;20022;-79
2022/05/23 08:39:09;;;;;;;4.88;2.63;;;19.50;76.80;;;;;;5022380;28;20064;-79
2022/05/23 08:41:40;;;;;;;5.18;3.05;;;19.30;78.20;;;;;;5015299;28;20018;-80
2022/05/23 08:44:15;;;;;;;6.30;3.55;;;19.10;80.30;;;;;;5020017;28;20065;-78
2022/05/23 08:47:01;;;;;;;4.68;3.30;;;19.10;80.50;;;;;;5019534;28;20059;-78
2022/05/23 08:49:47;;;;;;;2.78;2.45;;;19.10;79.70;;;;;;5021801;28;20062;-79
2022/05/23 08:52:26;;;;;;;10.23;3.05;;;19.40;79.50;;;;;;5001604;28;20136;-78
2022/05/23 08:55:06;;;;;;;5.28;2.65;;;19.80;77.50;;;;;;5019053;28;20033;-79
2022/05/23 08:57:50;;;;;;;5.25;3.00;;;20.40;76.20;;;;;;5019147;28;20100;-78
2022/05/23 09:00:23;;;;;;;4.05;3.00;;;20.40;73.50;;;;;;5019197;28;20076;-79
2022/05/23 09:02:54;;;;;;;3.40;2.13;;;20.40;73.30;;;;;;5019655;28;20036;-78
2022/05/23 09:05:24;;;;;;;5.32;2.22;;;20.60;73.40;;;;;;5019918;28;20028;-79
2022/05/23 09:07:56;;;;;;;7.30;2.55;;;21.10;71.60;;;;;;5019100;28;20034;-79
2022/05/23 09:10:29;;;;;;;8.90;2.38;;;21.50;70.00;;;;;;5019584;28;20037;-79
2022/05/23 09:12:55;;;;;;;6.55;3.17;;;21.90;68.90;;;;;;5020578;28;20083;-81
2022/05/23 09:15:23;;;;;;;5.18;2.72;;;22.20;66.70;;;;;;5021866;28;20074;-77
2022/05/23 09:17:59;;;;;;;3.67;2.00;;;22.30;65.40;;;;;;5003149;28;20030;-77
2022/05/23 09:20:44;;;;;;;3.47;2.30;;;22.40;65.70;;;;;;5022177;28;20036;-79
2022/05/23 09:23:20;;;;;;;2.95;2.03;;;22.30;65.40;;;;;;5020339;28;20030;-79
2022/05/23 09:25:51;;;;;;;4.50;2.33;;;22.30;65.80;;;;;;5019831;28;20030;-79
2022/05/23 09:28:27;;;;;;;2.20;1.60;;;22.50;65.00;;;;;;5022857;28;20045;-78
2022/05/23 09:31:22;;;;;;;2.15;1.70;;;22.80;64.30;;;;;;5023388;28;20032;-78
2022/05/23 09:33:50;;;;;;;3.47;1.88;;;23.10;63.10;;;;;;5013859;28;20042;-78
2022/05/23 09:36:36;;;;;;;4.35;1.88;;;23.30;61.60;;;;;;5022821;28;20030;-79
2022/05/23 09:39:05;;;;;;;1.95;1.63;;;23.20;60.90;;;;;;5020622;28;20034;-78
2022/05/23 09:49:53;;;;;;;4.97;2.20;;;23.70;59.40;;;;;;5000915;28;20045;-79
2022/05/23 09:52:28;;;;;;;4.97;1.80;;;24.00;58.30;;;;;;5000050;28;20026;-79
2022/05/23 09:55:02;;;;;;;5.78;2.10;;;24.30;57.50;;;;;;5012907;28;20494;-78
2022/05/23 09:57:39;;;;;;;4.93;2.65;;;24.20;57.90;;;;;;5019497;28;20037;-79
2022/05/23 10:00:17;;;;;;;2.95;1.52;;;24.30;58.00;;;;;;5021963;28;20010;-79
2022/05/23 10:02:52;;;;;;;6.00;1.80;;;24.80;56.10;;;;;;5019316;28;20030;-81
2022/05/23 10:05:28;;;;;;;3.60;1.92;;;25.20;55.10;;;;;;5000970;28;20040;-78
2022/05/23 10:07:56;;;;;;;4.28;1.80;;;25.60;54.30;;;;;;5020469;28;20135;-76
2022/05/23 10:10:29;;;;;;;7.38;1.60;;;25.80;53.20;;;;;;5019671;28;20060;-79
2022/05/23 10:13:19;;;;;;;3.45;1.77;;;25.90;52.20;;;;;;5023039;28;20034;-77
2022/05/23 10:15:55;;;;;;;6.25;2.28;;;25.90;52.10;;;;;;5024273;28;20072;-77
2022/05/23 10:18:29;;;;;;;5.13;1.73;;;25.60;51.90;;;;;;5004471;28;20071;-79
2022/05/23 10:20:55;;;;;;;7.05;2.17;;;25.50;52.60;;;;;;5024032;28;20025;-78
2022/05/23 10:23:25;;;;;;;5.88;2.65;;;25.40;52.00;;;;;;5022092;28;20038;-77
2022/05/23 10:25:57;;;;;;;4.75;2.50;;;25.30;52.60;;;;;;5019313;28;20126;-78
2022/05/23 10:28:50;;;;;;;4.43;1.50;;;25.60;52.10;;;;;;5011527;28;20076;-80
2022/05/23 10:31:27;;;;;;;5.47;2.05;;;25.70;51.70;;;;;;5029242;28;20090;-79
2022/05/23 10:34:19;;;;;;;4.25;1.92;;;25.80;51.00;;;;;;5024925;28;20018;-79
2022/05/23 10:36:48;;;;;;;4.80;2.00;;;25.60;51.60;;;;;;5022074;28;20033;-79
2022/05/23 10:42:23;;;;;;;6.03;2.25;;;25.70;52.30;;;;;;4998859;28;20041;-78
2022/05/23 10:45:26;;;;;;;6.65;2.30;;;25.50;52.90;;;;;;4999082;28;20026;-79
2022/05/23 10:48:33;;;;;;;1.65;1.52;;;25.70;53.40;;;;;;4999227;28;20062;-81
2022/05/23 10:51:21;;;;;;;5.68;2.60;;;26.10;53.00;;;;;;4998259;28;20082;-78
2022/05/23 10:53:55;;;;;;;5.80;2.20;;;26.50;52.20;;;;;;4999785;28;20030;-78
2022/05/23 10:56:51;;;;;;;8.52;2.38;;;26.30;52.50;;;;;;5010405;28;20073;-80
2022/05/23 10:59:17;;;;;;;5.38;2.10;;;25.80;53.80;;;;;;5006385;28;20049;-80
2022/05/23 11:02:22;;;;;;;3.83;2.22;;;25.60;54.20;;;;;;5025912;28;20478;-80
2022/05/23 11:04:59;;;;;;;2.53;1.70;;;25.60;54.60;;;;;;4965130;28;20033;-79
2022/05/23 11:07:44;;;;;;;6.15;2.22;;;25.70;54.90;;;;;;5005251;28;20033;-79
2022/05/23 11:10:34;;;;;;;7.63;2.70;;;26.00;53.40;;;;;;5007328;28;20117;-78
2022/05/23 11:13:18;;;;;;;5.38;3.03;;;26.30;53.50;;;;;;5022847;28;20093;-78
2022/05/23 11:16:28;;;;;;;4.75;2.10;;;26.70;52.90;;;;;;5004243;28;20022;-77
2022/05/23 11:19:07;;;;;;;4.78;2.10;;;27.00;51.70;;;;;;5022415;28;20124;-80
2022/05/23 11:21:38;;;;;;;5.28;2.10;;;26.90;52.20;;;;;;5024204;28;20530;-80
2022/05/23 11:24:17;;;;;;;3.80;2.17;;;27.30;51.60;;;;;;5024702;28;20029;-78
2022/05/23 11:26:49;;;;;;;3.05;2.15;;;27.80;50.80;;;;;;5002824;28;20073;-79
2022/05/23 11:34:55;;;;;;;5.30;2.70;;;27.70;50.20;;;;;;5005033;28;20534;-78
2022/05/23 11:39:56;;;;;;;10.23;2.97;;;27.30;51.40;;;;;;5021384;28;20022;-79
2022/05/23 11:42:26;;;;;;;5.28;2.38;;;27.20;51.00;;;;;;5020254;28;20022;-79
2022/05/23 11:44:54;;;;;;;5.80;2.50;;;27.20;51.70;;;;;;5023080;28;20026;-80
2022/05/23 11:47:21;;;;;;;4.47;2.50;;;27.20;50.90;;;;;;5022833;28;20018;-79
2022/05/23 11:50:00;;;;;;;7.55;3.00;;;27.40;50.50;;;;;;5004694;28;20537;-80
2022/05/23 11:52:41;;;;;;;4.18;2.05;;;27.80;49.60;;;;;;5007138;28;20030;-80
2022/05/23 11:55:31;;;;;;;7.60;2.10;;;28.10;49.10;;;;;;5009718;28;20549;-79
2022/05/23 11:58:18;;;;;;;8.18;2.45;;;28.30;48.80;;;;;;5024429;28;20284;-78
2022/05/23 12:01:14;;;;;;;4.32;2.50;;;28.50;48.50;;;;;;5027732;28;20021;-77
2022/05/23 12:03:55;;;;;;;7.88;2.28;;;28.40;48.40;;;;;;5026011;28;20054;-81
2022/05/23 12:06:24;;;;;;;7.35;2.20;;;28.20;49.30;;;;;;5025541;28;20033;-77
2022/05/23 12:09:12;;;;;;;10.70;2.90;;;28.00;49.00;;;;;;5014678;28;20396;-80
2022/05/23 12:11:49;;;;;;;4.68;2.35;;;27.50;49.40;;;;;;5024499;28;20030;-76
2022/05/23 12:14:18;;;;;;;5.22;2.15;;;27.40;50.00;;;;;;5022445;28;20065;-76
2022/05/23 12:17:10;;;;;;;9.70;2.83;;;27.40;49.80;;;;;;5021647;28;20026;-77
2022/05/23 12:19:42;;;;;;;6.45;2.38;;;27.30;49.70;;;;;;5016401;28;20045;-77
2022/05/23 12:22:32;;;;;;;8.25;2.50;;;27.20;50.40;;;;;;5020294;28;20097;-77
2022/05/23 12:25:10;;;;;;;3.35;1.95;;;27.20;50.40;;;;;;5018178;28;20028;-78
2022/05/23 12:27:45;;;;;;;6.65;2.30;;;27.30;50.60;;;;;;5000946;28;20029;-77
2022/05/23 12:30:20;;;;;;;11.07;2.42;;;27.40;49.60;;;;;;5001463;28;20052;-79
2022/05/23 12:32:55;;;;;;;4.93;2.30;;;27.50;50.00;;;;;;5018799;28;20113;-79
2022/05/23 12:35:28;;;;;;;6.60;2.20;;;27.80;49.60;;;;;;5002678;28;20042;-80
2022/05/23 12:38:30;;;;;;;6.00;2.08;;;28.00;49.20;;;;;;5020884;28;20100;-79
2022/05/23 12:41:05;;;;;;;4.70;2.35;;;28.00;48.50;;;;;;5014028;28;20055;-79
2022/05/23 12:43:44;;;;;;;5.32;2.00;;;27.80;48.70;;;;;;5020566;28;20030;-81
2022/05/23 12:46:21;;;;;;;5.22;2.05;;;27.90;49.30;;;;;;5021232;28;20080;-80
2022/05/23 12:49:10;;;;;;;5.05;2.00;;;27.80;48.70;;;;;;5020978;28;20061;-78
2022/05/23 12:52:11;;;;;;;7.32;2.40;;;27.70;48.30;;;;;;5002898;28;20026;-78
2022/05/23 12:54:57;;;;;;;4.78;2.00;;;27.50;49.20;;;;;;5006550;28;20077;-77
2022/05/23 12:57:31;;;;;;;6.40;2.00;;;27.60;49.30;;;;;;5018761;28;20090;-78
2022/05/23 13:00:16;;;;;;;4.82;2.10;;;27.90;49.00;;;;;;5019069;28;20077;-80
2022/05/23 13:02:51;;;;;;;9.27;2.83;;;28.10;48.10;;;;;;5020809;28;20443;-79
2022/05/23 13:05:24;;;;;;;7.25;2.08;;;28.20;48.30;;;;;;5018659;28;20030;-79
2022/05/23 13:08:03;;;;;;;4.35;2.35;;;28.90;47.70;;;;;;5011177;28;20070;-78
2022/05/23 13:10:41;;;;;;;5.95;2.13;;;29.60;46.10;;;;;;5019865;28;20018;-80
2022/05/23 13:13:33;;;;;;;4.40;2.00;;;29.80;46.00;;;;;;5020407;28;20052;-78
2022/05/23 13:16:18;;;;;;;5.82;2.22;;;30.20;45.70;;;;;;5005400;28;20029;-78
2022/05/23 13:27:03;;;;;;;4.78;2.70;;;27.40;48.10;;;;;;5042446;23;20041;-85
2022/05/23 13:29:30;;;;;;;6.72;2.55;;;26.80;49.40;;;;;;5031607;28;20093;-82
2022/05/23 13:32:01;;;;;;;10.68;2.83;;;26.40;50.40;;;;;;5024584;28;20061;-84
2022/05/23 13:34:35;;;;;;;6.22;2.50;;;26.30;50.90;;;;;;5040978;28;20030;-82
2022/05/23 13:37:02;;;;;;;7.13;2.50;;;26.20;51.40;;;;;;5042231;28;20056;-83
2022/05/23 13:39:29;;;;;;;5.70;2.40;;;26.20;51.70;;;;;;5040455;28;20600;-84
2022/05/23 13:41:56;;;;;;;3.78;1.90;;;26.30;51.80;;;;;;5040221;28;20013;-83
2022/05/23 13:44:25;;;;;;;5.90;2.35;;;27.00;51.00;;;;;;5039360;28;20029;-82
2022/05/23 13:47:02;;;;;;;5.93;2.38;;;27.60;49.60;;;;;;5039555;28;20033;-83
2022/05/23 13:49:33;;;;;;;9.23;2.90;;;28.10;48.90;;;;;;5041411;28;20060;-83
2022/05/23 13:52:05;;;;;;;5.18;2.40;;;28.30;48.30;;;;;;5046843;28;20025;-83
2022/05/23 13:54:32;;;;;;;;;;;28.30;48.40;;;;;;5045966;28;20045;-84
2022/05/23 13:57:22;;;;;;;7.28;2.28;;;28.10;48.70;;;;;;5047243;28;19905;-82
2022/05/23 14:00:00;;;;;;;6.25;2.20;;;27.60;49.90;;;;;;5021568;28;20018;-81
2022/05/23 14:02:32;;;;;;;7.65;2.88;;;27.30;51.10;;;;;;5021886;28;20030;-82
2022/05/23 14:04:58;;;;;;;11.68;2.35;;;27.00;51.80;;;;;;5024129;28;20026;-82
2022/05/23 14:07:29;;;;;;;6.82;2.17;;;26.80;52.20;;;;;;5030975;28;20065;-85
2022/05/23 14:09:56;;;;;;;5.63;2.10;;;26.60;52.30;;;;;;5049472;28;20036;-82
2022/05/23 14:12:27;;;;;;;13.30;2.30;;;26.50;52.70;;;;;;5033405;28;20755;-83
2022/05/23 14:15:18;;;;;;;5.03;1.88;;;26.40;52.60;;;;;;5042169;28;20042;-84
2022/05/23 14:17:49;;;;;;;4.10;2.73;;;26.60;53.00;;;;;;5039756;28;20112;-84